sensor_id;sensor_type;location;lat;lon;timestamp;P1;durP1;ratioP1;P2;durP2;ratioP2
75744;SDS011;64359;51.366;-0.222;2023-04-01T04:39:40;1.60;;;1.00;;
75744;SDS011;64359;51.366;-0.222;2023-04-01T04:40:45;1.10;;;1.10;;
75744;SDS011;64359;51.366;-0.222;2023-04-01T04:41:49;1.00;;;1.00;;
75744;SDS011;64359;51.366;-0.222;2023-04-01T04:42:54;1.40;;;1.30;;
75744;SDS011;64359;51.366;-0.222;2023-04-01T04:43:58;1.70;;;1.60;;
75744;SDS011;64359;51.366;-0.222;2023-04-01T04:45:03;1.00;;;0.90;;
75744;SDS011;64359;51.366;-0.222;2023-04-01T04:46:08;1.30;;;1.00;;
75744;SDS011;64359;51.366;-0.222;2023-04-01T04:47:13;2.00;;;1.20;;
75744;SDS011;64359;51.366;-0.222;2023-04-01T04:48:18;1.00;;;1.00;;
75744;SDS011;64359;51.366;-0.222;2023-04-01T04:49:23;1.00;;;1.00;;
75744;SDS011;64359;51.366;-0.222;2023-04-01T04:50:27;1.50;;;1.20;;
75744;SDS011;64359;51.366;-0.222;2023-04-01T04:51:31;1.70;;;1.60;;
75744;SDS011;64359;51.366;-0.222;2023-04-01T04:52:37;1.90;;;1.60;;
75744;SDS011;64359;51.366;-0.222;2023-04-01T04:53:42;1.00;;;1.00;;
75744;SDS011;64359;51.366;-0.222;2023-04-01T04:54:47;0.80;;;0.80;;
75744;SDS011;64359;51.366;-0.222;2023-04-01T04:55:51;2.10;;;1.40;;
75744;SDS011;64359;51.366;-0.222;2023-04-01T04:56:56;1.00;;;1.00;;
75744;SDS011;64359;51.366;-0.222;2023-04-01T04:58:01;1.00;;;0.90;;
75744;SDS011;64359;51.366;-0.222;2023-04-01T04:59:05;1.00;;;0.90;;
75744;SDS011;64359;51.366;-0.222;2023-04-01T05:00:10;1.00;;;1.00;;
75744;SDS011;64359;51.366;-0.222;2023-04-01T05:01:16;1.00;;;0.90;;
75744;SDS011;64359;51.366;-0.222;2023-04-01T05:02:21;1.10;;;1.10;;
75744;SDS011;64359;51.366;-0.222;2023-04-01T05:03:26;1.60;;;1.50;;
75744;SDS011;64359;51.366;-0.222;2023-04-01T05:04:30;0.90;;;0.90;;
75744;SDS011;64359;51.366;-0.222;2023-04-01T05:05:39;1.30;;;1.00;;
75744;SDS011;64359;51.366;-0.222;2023-04-01T05:06:50;1.00;;;0.90;;
75744;SDS011;64359;51.366;-0.222;2023-04-01T05:07:55;0.90;;;0.90;;
75744;SDS011;64359;51.366;-0.222;2023-04-01T05:08:59;2.20;;;0.80;;
75744;SDS011;64359;51.366;-0.222;2023-04-01T05:10:04;1.10;;;1.00;;
75744;SDS011;64359;51.366;-0.222;2023-04-01T05:11:11;0.90;;;0.90;;
75744;SDS011;64359;51.366;-0.222;2023-04-01T05:12:17;0.90;;;0.90;;
75744;SDS011;64359;51.366;-0.222;2023-04-01T05:13:21;1.10;;;1.10;;
75744;SDS011;64359;51.366;-0.222;2023-04-01T05:14:26;1.10;;;1.00;;
75744;SDS011;64359;51.366;-0.222;2023-04-01T05:15:30;0.80;;;0.80;;
75744;SDS011;64359;51.366;-0.222;2023-04-01T05:16:35;1.10;;;1.00;;
75744;SDS011;64359;51.366;-0.222;2023-04-01T05:17:39;0.90;;;0.90;;
75744;SDS011;64359;51.366;-0.222;2023-04-01T05:18:44;1.10;;;0.90;;
75744;SDS011;64359;51.366;-0.222;2023-04-01T05:19:50;1.40;;;1.30;;
75744;SDS011;64359;51.366;-0.222;2023-04-01T05:20:54;1.00;;;1.00;;
75744;SDS011;64359;51.366;-0.222;2023-04-01T05:21:59;0.80;;;0.80;;
75744;SDS011;64359;51.366;-0.222;2023-04-01T05:23:03;0.80;;;0.80;;
75744;SDS011;64359;51.366;-0.222;2023-04-01T05:24:08;1.00;;;1.00;;
75744;SDS011;64359;51.366;-0.222;2023-04-01T05:25:13;0.80;;;0.80;;
75744;SDS011;64359;51.366;-0.222;2023-04-01T05:26:17;0.90;;;0.90;;
75744;SDS011;64359;51.366;-0.222;2023-04-01T05:27:22;1.50;;;1.40;;
75744;SDS011;64359;51.366;-0.222;2023-04-01T05:28:26;1.30;;;1.30;;
75744;SDS011;64359;51.366;-0.222;2023-04-01T05:29:31;0.90;;;0.90;;
75744;SDS011;64359;51.366;-0.222;2023-04-01T05:30:37;0.80;;;0.80;;
75744;SDS011;64359;51.366;-0.222;2023-04-01T05:31:44;1.90;;;0.90;;
75744;SDS011;64359;51.366;-0.222;2023-04-01T05:32:48;1.10;;;1.00;;
75744;SDS011;64359;51.366;-0.222;2023-04-01T05:33:53;0.90;;;0.90;;
75744;SDS011;64359;51.366;-0.222;2023-04-01T05:34:57;0.80;;;0.80;;
75744;SDS011;64359;51.366;-0.222;2023-04-01T05:36:09;1.00;;;0.90;;
75744;SDS011;64359;51.366;-0.222;2023-04-01T05:38:20;0.80;;;0.80;;
75744;SDS011;64359;51.366;-0.222;2023-04-01T05:39:25;0.80;;;0.80;;
75744;SDS011;64359;51.366;-0.222;2023-04-01T05:40:30;0.80;;;0.80;;
75744;SDS011;64359;51.366;-0.222;2023-04-01T05:41:35;1.70;;;1.00;;
75744;SDS011;64359;51.366;-0.222;2023-04-01T05:42:41;1.50;;;0.80;;
75744;SDS011;64359;51.366;-0.222;2023-04-01T05:43:46;1.30;;;1.20;;
75744;SDS011;64359;51.366;-0.222;2023-04-01T05:44:50;0.70;;;0.70;;
75744;SDS011;64359;51.366;-0.222;2023-04-01T05:45:54;1.00;;;1.00;;
75744;SDS011;64359;51.366;-0.222;2023-04-01T05:46:59;0.90;;;0.90;;
75744;SDS011;64359;51.366;-0.222;2023-04-01T05:48:04;0.60;;;0.60;;
75744;SDS011;64359;51.366;-0.222;2023-04-01T05:49:08;1.20;;;0.80;;
75744;SDS011;64359;51.366;-0.222;2023-04-01T05:50:12;2.40;;;0.90;;
75744;SDS011;64359;51.366;-0.222;2023-04-01T05:51:17;0.90;;;0.80;;
75744;SDS011;64359;51.366;-0.222;2023-04-01T05:52:22;2.10;;;1.00;;
75744;SDS011;64359;51.366;-0.222;2023-04-01T05:53:27;1.70;;;0.90;;
75744;SDS011;64359;51.366;-0.222;2023-04-01T05:54:31;1.50;;;1.00;;
75744;SDS011;64359;51.366;-0.222;2023-04-01T05:55:36;0.80;;;0.80;;
75744;SDS011;64359;51.366;-0.222;2023-04-01T05:56:40;0.80;;;0.80;;
75744;SDS011;64359;51.366;-0.222;2023-04-01T05:57:45;1.00;;;1.00;;
75744;SDS011;64359;51.366;-0.222;2023-04-01T05:58:51;1.30;;;0.90;;
75744;SDS011;64359;51.366;-0.222;2023-04-01T05:59:57;2.00;;;0.80;;
75744;SDS011;64359;51.366;-0.222;2023-04-01T06:01:02;1.80;;;0.80;;
75744;SDS011;64359;51.366;-0.222;2023-04-01T06:02:09;1.40;;;0.90;;
75744;SDS011;64359;51.366;-0.222;2023-04-01T06:03:13;0.70;;;0.70;;
75744;SDS011;64359;51.366;-0.222;2023-04-01T06:04:18;3.30;;;1.80;;
75744;SDS011;64359;51.366;-0.222;2023-04-01T06:05:23;1.10;;;0.80;;
75744;SDS011;64359;51.366;-0.222;2023-04-01T06:06:30;3.40;;;0.90;;
75744;SDS011;64359;51.366;-0.222;2023-04-01T06:07:35;2.20;;;0.80;;
75744;SDS011;64359;51.366;-0.222;2023-04-01T06:08:40;1.60;;;0.80;;
75744;SDS011;64359;51.366;-0.222;2023-04-01T06:09:44;2.00;;;1.00;;
75744;SDS011;64359;51.366;-0.222;2023-04-01T06:10:51;2.60;;;1.00;;
75744;SDS011;64359;51.366;-0.222;2023-04-01T06:12:20;1.00;;;0.80;;
75744;SDS011;64359;51.366;-0.222;2023-04-01T06:13:41;1.40;;;0.90;;
75744;SDS011;64359;51.366;-0.222;2023-04-01T06:15:06;2.30;;;1.10;;
75744;SDS011;64359;51.366;-0.222;2023-04-01T06:16:21;10.80;;;5.30;;
75744;SDS011;64359;51.366;-0.222;2023-04-01T06:17:38;6.30;;;4.30;;
75744;SDS011;64359;51.366;-0.222;2023-04-01T06:19:05;9.70;;;5.90;;
75744;SDS011;64359;51.366;-0.222;2023-04-01T06:20:20;12.30;;;7.70;;
75744;SDS011;64359;51.366;-0.222;2023-04-01T06:26:16;10.00;;;7.70;;
75744;SDS011;64359;51.366;-0.222;2023-04-01T06:27:29;12.50;;;9.30;;
75744;SDS011;64359;51.366;-0.222;2023-04-01T06:28:59;13.40;;;8.60;;
75744;SDS011;64359;51.366;-0.222;2023-04-01T06:30:27;13.80;;;8.40;;
75744;SDS011;64359;51.366;-0.222;2023-04-01T06:31:47;11.40;;;8.60;;
75744;SDS011;64359;51.366;-0.222;2023-04-01T06:34:41;11.40;;;7.50;;
75744;SDS011;64359;51.366;-0.222;2023-04-01T06:36:02;9.90;;;7.60;;
75744;SDS011;64359;51.366;-0.222;2023-04-01T06:37:23;10.60;;;7.70;;
75744;SDS011;64359;51.366;-0.222;2023-04-01T06:40:25;8.80;;;7.50;;
75744;SDS011;64359;51.366;-0.222;2023-04-01T06:41:48;10.50;;;8.40;;
75744;SDS011;64359;51.366;-0.222;2023-04-01T06:43:09;7.70;;;6.80;;
75744;SDS011;64359;51.366;-0.222;2023-04-01T06:44:20;9.00;;;8.10;;
75744;SDS011;64359;51.366;-0.222;2023-04-01T06:45:34;6.80;;;6.10;;
75744;SDS011;64359;51.366;-0.222;2023-04-01T06:46:44;7.60;;;6.00;;
75744;SDS011;64359;51.366;-0.222;2023-04-01T06:47:59;7.60;;;6.10;;
75744;SDS011;64359;51.366;-0.222;2023-04-01T06:49:24;9.20;;;6.20;;
75744;SDS011;64359;51.366;-0.222;2023-04-01T06:50:38;7.00;;;5.80;;
75744;SDS011;64359;51.366;-0.222;2023-04-01T06:51:48;7.20;;;5.60;;
75744;SDS011;64359;51.366;-0.222;2023-04-01T06:53:02;7.50;;;5.30;;
75744;SDS011;64359;51.366;-0.222;2023-04-01T06:54:13;7.10;;;6.40;;
75744;SDS011;64359;51.366;-0.222;2023-04-01T06:55:26;8.20;;;7.00;;
75744;SDS011;64359;51.366;-0.222;2023-04-01T06:56:38;6.60;;;5.50;;
75744;SDS011;64359;51.366;-0.222;2023-04-01T06:57:48;6.90;;;6.20;;
75744;SDS011;64359;51.366;-0.222;2023-04-01T06:58:55;8.00;;;6.00;;
75744;SDS011;64359;51.366;-0.222;2023-04-01T07:00:03;7.10;;;5.80;;
75744;SDS011;64359;51.366;-0.222;2023-04-01T07:01:16;7.40;;;5.70;;
75744;SDS011;64359;51.366;-0.222;2023-04-01T07:02:25;6.60;;;6.10;;
75744;SDS011;64359;51.366;-0.222;2023-04-01T07:03:37;5.80;;;5.30;;
75744;SDS011;64359;51.366;-0.222;2023-04-01T07:04:46;6.60;;;5.30;;
75744;SDS011;64359;51.366;-0.222;2023-04-01T07:05:53;7.10;;;5.70;;
75744;SDS011;64359;51.366;-0.222;2023-04-01T07:07:05;5.50;;;5.00;;
75744;SDS011;64359;51.366;-0.222;2023-04-01T07:08:18;6.20;;;5.50;;
75744;SDS011;64359;51.366;-0.222;2023-04-01T07:09:27;7.00;;;6.40;;
75744;SDS011;64359;51.366;-0.222;2023-04-01T07:10:39;6.30;;;5.70;;
75744;SDS011;64359;51.366;-0.222;2023-04-01T07:11:49;6.60;;;5.40;;
75744;SDS011;64359;51.366;-0.222;2023-04-01T07:12:56;6.10;;;5.30;;
75744;SDS011;64359;51.366;-0.222;2023-04-01T07:14:06;6.70;;;6.00;;
75744;SDS011;64359;51.366;-0.222;2023-04-01T07:15:18;6.90;;;6.10;;
75744;SDS011;64359;51.366;-0.222;2023-04-01T07:16:27;6.00;;;5.40;;
75744;SDS011;64359;51.366;-0.222;2023-04-01T07:17:35;6.90;;;6.30;;
75744;SDS011;64359;51.366;-0.222;2023-04-01T07:18:42;6.00;;;5.40;;
75744;SDS011;64359;51.366;-0.222;2023-04-01T07:19:50;5.40;;;4.90;;
75744;SDS011;64359;51.366;-0.222;2023-04-01T07:20:59;5.30;;;4.80;;
75744;SDS011;64359;51.366;-0.222;2023-04-01T07:22:05;6.90;;;5.00;;
75744;SDS011;64359;51.366;-0.222;2023-04-01T07:23:23;6.50;;;5.80;;
75744;SDS011;64359;51.366;-0.222;2023-04-01T07:24:33;5.40;;;4.40;;
75744;SDS011;64359;51.366;-0.222;2023-04-01T07:25:42;4.30;;;3.80;;
75744;SDS011;64359;51.366;-0.222;2023-04-01T07:26:49;5.70;;;5.10;;
75744;SDS011;64359;51.366;-0.222;2023-04-01T07:27:59;4.40;;;4.00;;
75744;SDS011;64359;51.366;-0.222;2023-04-01T07:29:08;5.70;;;5.10;;
75744;SDS011;64359;51.366;-0.222;2023-04-01T07:30:15;4.80;;;4.40;;
75744;SDS011;64359;51.366;-0.222;2023-04-01T07:31:25;11.60;;;4.30;;
75744;SDS011;64359;51.366;-0.222;2023-04-01T07:32:42;5.70;;;4.20;;
75744;SDS011;64359;51.366;-0.222;2023-04-01T07:33:53;5.10;;;4.60;;
75744;SDS011;64359;51.366;-0.222;2023-04-01T07:35:09;7.00;;;5.00;;
75744;SDS011;64359;51.366;-0.222;2023-04-01T07:36:24;4.80;;;3.90;;
75744;SDS011;64359;51.366;-0.222;2023-04-01T07:37:39;6.50;;;4.30;;
75744;SDS011;64359;51.366;-0.222;2023-04-01T07:38:54;4.00;;;3.60;;
75744;SDS011;64359;51.366;-0.222;2023-04-01T07:40:10;7.00;;;3.90;;
75744;SDS011;64359;51.366;-0.222;2023-04-01T07:41:25;4.90;;;3.90;;
75744;SDS011;64359;51.366;-0.222;2023-04-01T07:42:38;5.90;;;4.20;;
75744;SDS011;64359;51.366;-0.222;2023-04-01T07:43:58;4.60;;;3.60;;
75744;SDS011;64359;51.366;-0.222;2023-04-01T07:45:12;5.30;;;4.00;;
75744;SDS011;64359;51.366;-0.222;2023-04-01T07:46:26;5.40;;;4.00;;
75744;SDS011;64359;51.366;-0.222;2023-04-01T07:47:45;4.30;;;3.80;;
75744;SDS011;64359;51.366;-0.222;2023-04-01T07:49:04;4.10;;;3.70;;
75744;SDS011;64359;51.366;-0.222;2023-04-01T07:50:18;5.00;;;3.60;;
75744;SDS011;64359;51.366;-0.222;2023-04-01T07:51:29;5.00;;;3.40;;
75744;SDS011;64359;51.366;-0.222;2023-04-01T07:52:41;4.20;;;3.00;;
75744;SDS011;64359;51.366;-0.222;2023-04-01T07:53:53;4.10;;;3.60;;
75744;SDS011;64359;51.366;-0.222;2023-04-01T07:55:09;4.90;;;2.90;;
75744;SDS011;64359;51.366;-0.222;2023-04-01T07:56:19;4.00;;;2.90;;
75744;SDS011;64359;51.366;-0.222;2023-04-01T07:57:33;5.80;;;2.90;;
75744;SDS011;64359;51.366;-0.222;2023-04-01T07:58:47;4.80;;;3.40;;
75744;SDS011;64359;51.366;-0.222;2023-04-01T08:00:03;4.10;;;3.60;;
75744;SDS011;64359;51.366;-0.222;2023-04-01T08:01:15;2.90;;;2.70;;
75744;SDS011;64359;51.366;-0.222;2023-04-01T08:02:32;4.50;;;3.10;;
75744;SDS011;64359;51.366;-0.222;2023-04-01T08:03:51;3.10;;;2.80;;
75744;SDS011;64359;51.366;-0.222;2023-04-01T08:05:18;5.70;;;3.00;;
75744;SDS011;64359;51.366;-0.222;2023-04-01T08:06:30;5.10;;;3.50;;
75744;SDS011;64359;51.366;-0.222;2023-04-01T08:07:41;3.40;;;3.10;;
75744;SDS011;64359;51.366;-0.222;2023-04-01T08:08:55;6.20;;;3.00;;
75744;SDS011;64359;51.366;-0.222;2023-04-01T08:10:07;2.80;;;2.60;;
75744;SDS011;64359;51.366;-0.222;2023-04-01T08:11:25;5.10;;;3.30;;
75744;SDS011;64359;51.366;-0.222;2023-04-01T08:12:42;4.80;;;2.80;;
75744;SDS011;64359;51.366;-0.222;2023-04-01T08:13:58;3.70;;;3.10;;
75744;SDS011;64359;51.366;-0.222;2023-04-01T08:15:12;5.00;;;2.90;;
75744;SDS011;64359;51.366;-0.222;2023-04-01T08:16:26;3.50;;;2.50;;
75744;SDS011;64359;51.366;-0.222;2023-04-01T08:17:38;7.30;;;3.80;;
75744;SDS011;64359;51.366;-0.222;2023-04-01T08:18:57;2.80;;;2.40;;
75744;SDS011;64359;51.366;-0.222;2023-04-01T08:20:16;8.90;;;2.70;;
75744;SDS011;64359;51.366;-0.222;2023-04-01T08:21:29;3.10;;;2.30;;
75744;SDS011;64359;51.366;-0.222;2023-04-01T08:22:42;3.50;;;2.80;;
75744;SDS011;64359;51.366;-0.222;2023-04-01T08:23:52;3.40;;;2.60;;
75744;SDS011;64359;51.366;-0.222;2023-04-01T08:25:01;4.50;;;3.50;;
75744;SDS011;64359;51.366;-0.222;2023-04-01T08:26:10;3.10;;;2.80;;
75744;SDS011;64359;51.366;-0.222;2023-04-01T08:27:23;3.00;;;2.30;;
75744;SDS011;64359;51.366;-0.222;2023-04-01T08:28:32;5.00;;;2.40;;
75744;SDS011;64359;51.366;-0.222;2023-04-01T08:29:41;2.60;;;2.20;;
75744;SDS011;64359;51.366;-0.222;2023-04-01T08:30:49;5.50;;;2.00;;
75744;SDS011;64359;51.366;-0.222;2023-04-01T08:32:00;3.80;;;2.40;;
75744;SDS011;64359;51.366;-0.222;2023-04-01T08:33:12;5.00;;;2.80;;
75744;SDS011;64359;51.366;-0.222;2023-04-01T08:34:21;2.50;;;2.30;;
75744;SDS011;64359;51.366;-0.222;2023-04-01T08:35:31;4.50;;;2.20;;
75744;SDS011;64359;51.366;-0.222;2023-04-01T08:36:41;4.00;;;2.30;;
75744;SDS011;64359;51.366;-0.222;2023-04-01T08:38:53;2.40;;;2.10;;
75744;SDS011;64359;51.366;-0.222;2023-04-01T08:40:05;2.30;;;1.90;;
75744;SDS011;64359;51.366;-0.222;2023-04-01T08:43:16;2.50;;;2.30;;
75744;SDS011;64359;51.366;-0.222;2023-04-01T08:44:35;4.20;;;2.40;;
75744;SDS011;64359;51.366;-0.222;2023-04-01T08:46:11;4.00;;;2.40;;
75744;SDS011;64359;51.366;-0.222;2023-04-01T08:49:16;4.60;;;2.70;;
75744;SDS011;64359;51.366;-0.222;2023-04-01T08:50:51;5.80;;;2.60;;
75744;SDS011;64359;51.366;-0.222;2023-04-01T08:52:16;3.30;;;2.50;;
75744;SDS011;64359;51.366;-0.222;2023-04-01T08:53:33;3.00;;;2.10;;
75744;SDS011;64359;51.366;-0.222;2023-04-01T08:55:01;4.10;;;2.40;;
75744;SDS011;64359;51.366;-0.222;2023-04-01T08:56:20;3.80;;;2.60;;
75744;SDS011;64359;51.366;-0.222;2023-04-01T08:57:34;3.20;;;2.60;;
75744;SDS011;64359;51.366;-0.222;2023-04-01T08:58:57;2.30;;;2.10;;
75744;SDS011;64359;51.366;-0.222;2023-04-01T09:00:18;3.50;;;2.30;;
75744;SDS011;64359;51.366;-0.222;2023-04-01T09:01:34;2.90;;;2.50;;
75744;SDS011;64359;51.366;-0.222;2023-04-01T09:02:56;6.10;;;2.50;;
75744;SDS011;64359;51.366;-0.222;2023-04-01T09:04:22;2.20;;;1.90;;
75744;SDS011;64359;51.366;-0.222;2023-04-01T09:05:37;3.40;;;2.40;;
75744;SDS011;64359;51.366;-0.222;2023-04-01T09:07:00;2.60;;;2.00;;
75744;SDS011;64359;51.366;-0.222;2023-04-01T09:08:19;4.00;;;2.50;;
75744;SDS011;64359;51.366;-0.222;2023-04-01T09:11:08;5.10;;;2.40;;
75744;SDS011;64359;51.366;-0.222;2023-04-01T09:15:23;7.30;;;2.90;;
75744;SDS011;64359;51.366;-0.222;2023-04-01T09:18:22;3.20;;;2.00;;
75744;SDS011;64359;51.366;-0.222;2023-04-01T09:19:42;5.20;;;2.80;;
75744;SDS011;64359;51.366;-0.222;2023-04-01T09:21:19;3.70;;;2.80;;
75744;SDS011;64359;51.366;-0.222;2023-04-01T09:22:37;2.60;;;2.20;;
75744;SDS011;64359;51.366;-0.222;2023-04-01T09:24:01;4.20;;;2.90;;
75744;SDS011;64359;51.366;-0.222;2023-04-01T09:25:32;9.10;;;2.40;;
75744;SDS011;64359;51.366;-0.222;2023-04-01T09:28:01;4.20;;;2.30;;
75744;SDS011;64359;51.366;-0.222;2023-04-01T09:29:16;2.70;;;2.40;;
75744;SDS011;64359;51.366;-0.222;2023-04-01T09:30:33;4.40;;;2.20;;
75744;SDS011;64359;51.366;-0.222;2023-04-01T09:31:55;7.30;;;2.10;;
75744;SDS011;64359;51.366;-0.222;2023-04-01T09:34:58;3.30;;;2.10;;
75744;SDS011;64359;51.366;-0.222;2023-04-01T09:36:16;3.10;;;2.40;;
75744;SDS011;64359;51.366;-0.222;2023-04-01T09:37:31;3.50;;;2.20;;
75744;SDS011;64359;51.366;-0.222;2023-04-01T09:38:47;4.00;;;2.30;;
75744;SDS011;64359;51.366;-0.222;2023-04-01T09:41:29;5.00;;;2.30;;
75744;SDS011;64359;51.366;-0.222;2023-04-01T09:43:52;3.70;;;2.30;;
75744;SDS011;64359;51.366;-0.222;2023-04-01T09:45:06;4.20;;;2.20;;
75744;SDS011;64359;51.366;-0.222;2023-04-01T09:46:18;4.90;;;2.50;;
75744;SDS011;64359;51.366;-0.222;2023-04-01T09:47:32;3.80;;;2.30;;
75744;SDS011;64359;51.366;-0.222;2023-04-01T09:50:35;3.80;;;2.40;;
75744;SDS011;64359;51.366;-0.222;2023-04-01T09:51:52;2.70;;;2.10;;
75744;SDS011;64359;51.366;-0.222;2023-04-01T09:53:14;5.10;;;2.20;;
75744;SDS011;64359;51.366;-0.222;2023-04-01T09:54:35;2.80;;;2.50;;
75744;SDS011;64359;51.366;-0.222;2023-04-01T09:56:13;4.00;;;2.60;;
75744;SDS011;64359;51.366;-0.222;2023-04-01T10:01:13;3.60;;;2.60;;
75744;SDS011;64359;51.366;-0.222;2023-04-01T10:02:52;3.90;;;2.30;;
75744;SDS011;64359;51.366;-0.222;2023-04-01T10:04:25;7.60;;;2.30;;
75744;SDS011;64359;51.366;-0.222;2023-04-01T10:09:17;3.70;;;2.30;;
75744;SDS011;64359;51.366;-0.222;2023-04-01T10:10:48;3.20;;;2.30;;
75744;SDS011;64359;51.366;-0.222;2023-04-01T10:13:39;2.20;;;2.00;;
75744;SDS011;64359;51.366;-0.222;2023-04-01T10:16:41;3.70;;;2.40;;
75744;SDS011;64359;51.366;-0.222;2023-04-01T10:19:57;3.50;;;2.00;;
75744;SDS011;64359;51.366;-0.222;2023-04-01T10:27:45;4.00;;;2.50;;
75744;SDS011;64359;51.366;-0.222;2023-04-01T10:29:06;5.40;;;2.10;;
75744;SDS011;64359;51.366;-0.222;2023-04-01T10:30:42;2.60;;;2.30;;
75744;SDS011;64359;51.366;-0.222;2023-04-01T10:35:58;3.20;;;2.20;;
75744;SDS011;64359;51.366;-0.222;2023-04-01T10:37:44;2.10;;;1.90;;
75744;SDS011;64359;51.366;-0.222;2023-04-01T10:41:18;4.20;;;2.10;;
75744;SDS011;64359;51.366;-0.222;2023-04-01T10:44:09;3.10;;;1.90;;
75744;SDS011;64359;51.366;-0.222;2023-04-01T10:46:59;3.10;;;2.00;;
75744;SDS011;64359;51.366;-0.222;2023-04-01T10:50:06;3.20;;;2.70;;
75744;SDS011;64359;51.366;-0.222;2023-04-01T10:51:38;2.30;;;1.80;;
75744;SDS011;64359;51.366;-0.222;2023-04-01T10:54:44;2.30;;;2.10;;
75744;SDS011;64359;51.366;-0.222;2023-04-01T10:56:05;4.70;;;2.30;;
75744;SDS011;64359;51.366;-0.222;2023-04-01T10:58:53;3.00;;;2.20;;
75744;SDS011;64359;51.366;-0.222;2023-04-01T11:00:19;3.10;;;1.60;;
75744;SDS011;64359;51.366;-0.222;2023-04-01T11:12:04;22.40;;;5.30;;
75744;SDS011;64359;51.366;-0.222;2023-04-01T11:13:35;8.30;;;3.90;;
75744;SDS011;64359;51.366;-0.222;2023-04-01T11:15:06;9.30;;;3.90;;
75744;SDS011;64359;51.366;-0.222;2023-04-01T11:25:16;12.60;;;3.50;;
75744;SDS011;64359;51.366;-0.222;2023-04-01T11:27:50;9.10;;;2.80;;
75744;SDS011;64359;51.366;-0.222;2023-04-01T11:30:29;6.00;;;2.90;;
75744;SDS011;64359;51.366;-0.222;2023-04-01T11:31:45;6.90;;;3.80;;
75744;SDS011;64359;51.366;-0.222;2023-04-01T11:32:57;7.80;;;2.90;;
75744;SDS011;64359;51.366;-0.222;2023-04-01T11:34:11;5.90;;;3.20;;
75744;SDS011;64359;51.366;-0.222;2023-04-01T11:35:30;7.70;;;3.40;;
75744;SDS011;64359;51.366;-0.222;2023-04-01T11:36:44;7.70;;;3.80;;
75744;SDS011;64359;51.366;-0.222;2023-04-01T11:39:10;8.70;;;3.10;;
75744;SDS011;64359;51.366;-0.222;2023-04-01T11:40:26;5.90;;;2.40;;
75744;SDS011;64359;51.366;-0.222;2023-04-01T11:41:38;7.50;;;3.70;;
75744;SDS011;64359;51.366;-0.222;2023-04-01T11:42:49;6.70;;;3.60;;
75744;SDS011;64359;51.366;-0.222;2023-04-01T11:44:07;7.40;;;2.90;;
75744;SDS011;64359;51.366;-0.222;2023-04-01T11:45:23;5.10;;;2.70;;
75744;SDS011;64359;51.366;-0.222;2023-04-01T11:46:39;5.60;;;3.20;;
75744;SDS011;64359;51.366;-0.222;2023-04-01T11:49:44;4.50;;;3.00;;
75744;SDS011;64359;51.366;-0.222;2023-04-01T11:51:00;5.80;;;2.40;;
75744;SDS011;64359;51.366;-0.222;2023-04-01T11:52:25;5.20;;;2.90;;
75744;SDS011;64359;51.366;-0.222;2023-04-01T11:53:44;6.60;;;3.30;;
75744;SDS011;64359;51.366;-0.222;2023-04-01T11:56:31;6.10;;;3.40;;
75744;SDS011;64359;51.366;-0.222;2023-04-01T11:59:22;7.00;;;3.00;;
75744;SDS011;64359;51.366;-0.222;2023-04-01T12:00:47;4.30;;;2.10;;
75744;SDS011;64359;51.366;-0.222;2023-04-01T12:02:07;5.50;;;2.40;;
75744;SDS011;64359;51.366;-0.222;2023-04-01T12:03:26;4.50;;;2.90;;
75744;SDS011;64359;51.366;-0.222;2023-04-01T12:06:25;5.80;;;2.80;;
75744;SDS011;64359;51.366;-0.222;2023-04-01T12:09:09;4.40;;;2.40;;
75744;SDS011;64359;51.366;-0.222;2023-04-01T12:10:21;3.90;;;2.70;;
75744;SDS011;64359;51.366;-0.222;2023-04-01T12:11:34;4.40;;;3.10;;
75744;SDS011;64359;51.366;-0.222;2023-04-01T12:12:48;7.40;;;2.30;;
75744;SDS011;64359;51.366;-0.222;2023-04-01T12:14:02;4.10;;;2.50;;
75744;SDS011;64359;51.366;-0.222;2023-04-01T12:15:16;3.80;;;1.80;;
75744;SDS011;64359;51.366;-0.222;2023-04-01T12:17:46;2.10;;;1.90;;
75744;SDS011;64359;51.366;-0.222;2023-04-01T12:18:57;3.10;;;1.90;;
75744;SDS011;64359;51.366;-0.222;2023-04-01T12:20:22;2.90;;;2.10;;
75744;SDS011;64359;51.366;-0.222;2023-04-01T12:21:34;2.90;;;2.10;;
75744;SDS011;64359;51.366;-0.222;2023-04-01T12:22:43;3.00;;;2.10;;
75744;SDS011;64359;51.366;-0.222;2023-04-01T12:24:00;3.00;;;2.70;;
75744;SDS011;64359;51.366;-0.222;2023-04-01T12:25:33;4.50;;;2.10;;
75744;SDS011;64359;51.366;-0.222;2023-04-01T12:26:58;3.00;;;2.00;;
75744;SDS011;64359;51.366;-0.222;2023-04-01T12:28:13;2.40;;;2.10;;
75744;SDS011;64359;51.366;-0.222;2023-04-01T12:31:20;1.90;;;1.70;;
75744;SDS011;64359;51.366;-0.222;2023-04-01T12:32:35;2.50;;;1.90;;
75744;SDS011;64359;51.366;-0.222;2023-04-01T12:34:02;2.90;;;1.90;;
75744;SDS011;64359;51.366;-0.222;2023-04-01T12:35:25;1.90;;;1.50;;
75744;SDS011;64359;51.366;-0.222;2023-04-01T12:36:35;2.80;;;1.80;;
75744;SDS011;64359;51.366;-0.222;2023-04-01T12:37:59;2.90;;;2.30;;
75744;SDS011;64359;51.366;-0.222;2023-04-01T12:39:17;2.70;;;2.30;;
75744;SDS011;64359;51.366;-0.222;2023-04-01T12:40:37;3.60;;;2.10;;
75744;SDS011;64359;51.366;-0.222;2023-04-01T12:41:51;2.20;;;1.80;;
75744;SDS011;64359;51.366;-0.222;2023-04-01T12:43:15;2.60;;;1.50;;
75744;SDS011;64359;51.366;-0.222;2023-04-01T12:44:31;2.50;;;1.60;;
75744;SDS011;64359;51.366;-0.222;2023-04-01T12:45:46;2.00;;;1.50;;
75744;SDS011;64359;51.366;-0.222;2023-04-01T12:47:04;1.60;;;1.40;;
75744;SDS011;64359;51.366;-0.222;2023-04-01T12:50:16;2.30;;;1.90;;
75744;SDS011;64359;51.366;-0.222;2023-04-01T12:51:34;2.70;;;1.70;;
75744;SDS011;64359;51.366;-0.222;2023-04-01T12:52:53;3.10;;;1.90;;
75744;SDS011;64359;51.366;-0.222;2023-04-01T12:55:59;2.30;;;1.70;;
75744;SDS011;64359;51.366;-0.222;2023-04-01T12:57:21;1.70;;;1.60;;
75744;SDS011;64359;51.366;-0.222;2023-04-01T12:58:43;2.70;;;1.70;;
75744;SDS011;64359;51.366;-0.222;2023-04-01T13:00:09;2.00;;;1.80;;
75744;SDS011;64359;51.366;-0.222;2023-04-01T13:01:29;2.40;;;1.60;;
75744;SDS011;64359;51.366;-0.222;2023-04-01T13:02:48;2.00;;;1.20;;
75744;SDS011;64359;51.366;-0.222;2023-04-01T13:05:51;2.30;;;1.80;;
75744;SDS011;64359;51.366;-0.222;2023-04-01T13:07:19;1.90;;;1.50;;
75744;SDS011;64359;51.366;-0.222;2023-04-01T13:08:35;1.70;;;1.60;;
75744;SDS011;64359;51.366;-0.222;2023-04-01T13:09:47;2.90;;;1.80;;
75744;SDS011;64359;51.366;-0.222;2023-04-01T13:11:02;1.60;;;1.50;;
75744;SDS011;64359;51.366;-0.222;2023-04-01T13:12:18;2.10;;;1.90;;
75744;SDS011;64359;51.366;-0.222;2023-04-01T13:13:41;1.90;;;1.40;;
75744;SDS011;64359;51.366;-0.222;2023-04-01T13:15:14;3.10;;;1.40;;
75744;SDS011;64359;51.366;-0.222;2023-04-01T13:16:29;1.90;;;1.70;;
75744;SDS011;64359;51.366;-0.222;2023-04-01T13:17:38;2.30;;;2.10;;
75744;SDS011;64359;51.366;-0.222;2023-04-01T13:18:54;2.00;;;1.60;;
75744;SDS011;64359;51.366;-0.222;2023-04-01T13:20:03;2.00;;;1.30;;
75744;SDS011;64359;51.366;-0.222;2023-04-01T13:21:18;1.80;;;1.50;;
75744;SDS011;64359;51.366;-0.222;2023-04-01T13:22:39;1.60;;;1.40;;
75744;SDS011;64359;51.366;-0.222;2023-04-01T13:23:57;2.70;;;1.70;;
75744;SDS011;64359;51.366;-0.222;2023-04-01T13:25:10;1.50;;;1.40;;
75744;SDS011;64359;51.366;-0.222;2023-04-01T13:26:29;2.40;;;2.00;;
75744;SDS011;64359;51.366;-0.222;2023-04-01T13:27:43;2.60;;;1.60;;
75744;SDS011;64359;51.366;-0.222;2023-04-01T13:28:52;1.30;;;1.20;;
75744;SDS011;64359;51.366;-0.222;2023-04-01T13:30:03;1.80;;;1.50;;
75744;SDS011;64359;51.366;-0.222;2023-04-01T13:31:26;2.00;;;1.50;;
75744;SDS011;64359;51.366;-0.222;2023-04-01T13:32:49;1.40;;;1.20;;
75744;SDS011;64359;51.366;-0.222;2023-04-01T13:34:08;2.10;;;1.50;;
75744;SDS011;64359;51.366;-0.222;2023-04-01T13:35:25;1.80;;;1.50;;
75744;SDS011;64359;51.366;-0.222;2023-04-01T13:36:39;1.70;;;1.50;;
75744;SDS011;64359;51.366;-0.222;2023-04-01T13:37:54;2.20;;;1.20;;
75744;SDS011;64359;51.366;-0.222;2023-04-01T13:39:22;2.10;;;1.90;;